sensor_id;sensor_type;location;lat;lon;timestamp;P1;durP1;ratioP1;P2;durP2;ratioP2
16524;SDS011;8375;33.594;-117.718;2023-03-22T00:00:10;27.10;;;4.90;;
16524;SDS011;8375;33.594;-117.718;2023-03-22T00:02:42;26.20;;;6.73;;
16524;SDS011;8375;33.594;-117.718;2023-03-22T00:05:10;27.57;;;5.67;;
16524;SDS011;8375;33.594;-117.718;2023-03-22T00:07:39;25.90;;;5.07;;
16524;SDS011;8375;33.594;-117.718;2023-03-22T00:10:08;24.93;;;5.40;;
16524;SDS011;8375;33.594;-117.718;2023-03-22T00:12:37;22.27;;;4.83;;
16524;SDS011;8375;33.594;-117.718;2023-03-22T00:15:11;26.83;;;5.27;;
16524;SDS011;8375;33.594;-117.718;2023-03-22T00:17:40;28.93;;;6.10;;
16524;SDS011;8375;33.594;-117.718;2023-03-22T00:20:09;28.43;;;5.17;;
16524;SDS011;8375;33.594;-117.718;2023-03-22T00:22:39;28.90;;;4.97;;
16524;SDS011;8375;33.594;-117.718;2023-03-22T00:25:08;26.40;;;6.27;;
16524;SDS011;8375;33.594;-117.718;2023-03-22T00:27:37;22.80;;;4.70;;
16524;SDS011;8375;33.594;-117.718;2023-03-22T00:30:07;26.67;;;5.17;;
16524;SDS011;8375;33.594;-117.718;2023-03-22T00:32:39;21.90;;;5.13;;
16524;SDS011;8375;33.594;-117.718;2023-03-22T00:35:09;25.00;;;5.33;;
16524;SDS011;8375;33.594;-117.718;2023-03-22T00:37:40;23.23;;;5.50;;
16524;SDS011;8375;33.594;-117.718;2023-03-22T00:40:10;15.53;;;4.93;;
16524;SDS011;8375;33.594;-117.718;2023-03-22T00:42:40;25.30;;;5.00;;
16524;SDS011;8375;33.594;-117.718;2023-03-22T00:45:10;31.10;;;6.67;;
16524;SDS011;8375;33.594;-117.718;2023-03-22T00:47:40;28.53;;;6.13;;
16524;SDS011;8375;33.594;-117.718;2023-03-22T00:50:09;31.80;;;6.03;;
16524;SDS011;8375;33.594;-117.718;2023-03-22T00:52:38;29.47;;;5.30;;
16524;SDS011;8375;33.594;-117.718;2023-03-22T00:55:07;25.80;;;4.57;;
16524;SDS011;8375;33.594;-117.718;2023-03-22T00:57:39;15.97;;;2.80;;
16524;SDS011;8375;33.594;-117.718;2023-03-22T01:00:08;3.97;;;1.63;;
16524;SDS011;8375;33.594;-117.718;2023-03-22T01:02:42;6.17;;;1.50;;
16524;SDS011;8375;33.594;-117.718;2023-03-22T01:05:11;6.33;;;1.20;;
16524;SDS011;8375;33.594;-117.718;2023-03-22T01:07:41;9.27;;;1.53;;
16524;SDS011;8375;33.594;-117.718;2023-03-22T01:10:10;9.43;;;1.43;;
16524;SDS011;8375;33.594;-117.718;2023-03-22T01:12:39;5.57;;;1.40;;
16524;SDS011;8375;33.594;-117.718;2023-03-22T01:15:08;5.87;;;1.57;;
16524;SDS011;8375;33.594;-117.718;2023-03-22T01:17:37;8.13;;;1.30;;
16524;SDS011;8375;33.594;-117.718;2023-03-22T01:20:08;7.67;;;1.57;;
16524;SDS011;8375;33.594;-117.718;2023-03-22T01:22:38;10.97;;;2.13;;
16524;SDS011;8375;33.594;-117.718;2023-03-22T01:25:06;9.63;;;1.70;;
16524;SDS011;8375;33.594;-117.718;2023-03-22T01:27:36;10.53;;;1.93;;
16524;SDS011;8375;33.594;-117.718;2023-03-22T01:30:05;10.70;;;1.87;;
16524;SDS011;8375;33.594;-117.718;2023-03-22T01:32:35;6.87;;;1.60;;
16524;SDS011;8375;33.594;-117.718;2023-03-22T01:35:04;7.53;;;1.60;;
16524;SDS011;8375;33.594;-117.718;2023-03-22T01:37:34;8.83;;;1.93;;
16524;SDS011;8375;33.594;-117.718;2023-03-22T01:40:04;6.50;;;2.20;;
16524;SDS011;8375;33.594;-117.718;2023-03-22T01:42:33;12.30;;;2.43;;
16524;SDS011;8375;33.594;-117.718;2023-03-22T01:48:12;12.03;;;1.87;;
16524;SDS011;8375;33.594;-117.718;2023-03-22T01:50:50;5.37;;;1.90;;
16524;SDS011;8375;33.594;-117.718;2023-03-22T01:53:29;11.50;;;2.23;;
16524;SDS011;8375;33.594;-117.718;2023-03-22T01:56:00;6.87;;;2.10;;
16524;SDS011;8375;33.594;-117.718;2023-03-22T01:58:30;5.60;;;2.30;;
16524;SDS011;8375;33.594;-117.718;2023-03-22T02:01:03;6.03;;;1.70;;
16524;SDS011;8375;33.594;-117.718;2023-03-22T02:03:35;9.80;;;2.20;;
16524;SDS011;8375;33.594;-117.718;2023-03-22T02:06:09;12.13;;;2.30;;
16524;SDS011;8375;33.594;-117.718;2023-03-22T02:08:40;7.93;;;2.30;;
16524;SDS011;8375;33.594;-117.718;2023-03-22T02:11:09;13.47;;;2.47;;
16524;SDS011;8375;33.594;-117.718;2023-03-22T02:13:54;12.23;;;2.83;;
16524;SDS011;8375;33.594;-117.718;2023-03-22T02:16:37;13.40;;;2.83;;
16524;SDS011;8375;33.594;-117.718;2023-03-22T02:22:44;16.67;;;3.23;;
16524;SDS011;8375;33.594;-117.718;2023-03-22T02:28:35;21.50;;;3.23;;
16524;SDS011;8375;33.594;-117.718;2023-03-22T02:34:19;19.57;;;3.63;;
16524;SDS011;8375;33.594;-117.718;2023-03-22T02:37:09;23.70;;;3.20;;
16524;SDS011;8375;33.594;-117.718;2023-03-22T02:40:01;15.57;;;3.23;;
16524;SDS011;8375;33.594;-117.718;2023-03-22T02:42:36;21.20;;;3.70;;
16524;SDS011;8375;33.594;-117.718;2023-03-22T02:45:12;13.60;;;3.20;;
16524;SDS011;8375;33.594;-117.718;2023-03-22T02:47:46;12.30;;;3.20;;
16524;SDS011;8375;33.594;-117.718;2023-03-22T02:50:23;19.13;;;3.00;;
16524;SDS011;8375;33.594;-117.718;2023-03-22T02:52:56;9.63;;;2.43;;
16524;SDS011;8375;33.594;-117.718;2023-03-22T02:55:32;13.67;;;2.60;;
16524;SDS011;8375;33.594;-117.718;2023-03-22T02:58:08;13.93;;;2.80;;
16524;SDS011;8375;33.594;-117.718;2023-03-22T03:00:39;9.93;;;2.43;;
16524;SDS011;8375;33.594;-117.718;2023-03-22T03:03:10;12.53;;;3.93;;
16524;SDS011;8375;33.594;-117.718;2023-03-22T03:05:43;11.07;;;2.80;;
16524;SDS011;8375;33.594;-117.718;2023-03-22T03:08:15;11.63;;;1.97;;
16524;SDS011;8375;33.594;-117.718;2023-03-22T03:10:46;9.97;;;3.00;;
16524;SDS011;8375;33.594;-117.718;2023-03-22T03:13:16;10.97;;;2.60;;
16524;SDS011;8375;33.594;-117.718;2023-03-22T03:15:46;15.63;;;2.60;;
16524;SDS011;8375;33.594;-117.718;2023-03-22T03:18:23;13.93;;;2.60;;
16524;SDS011;8375;33.594;-117.718;2023-03-22T03:21:01;11.23;;;2.00;;
16524;SDS011;8375;33.594;-117.718;2023-03-22T03:23:41;7.77;;;2.03;;
16524;SDS011;8375;33.594;-117.718;2023-03-22T03:26:22;14.47;;;2.23;;
16524;SDS011;8375;33.594;-117.718;2023-03-22T03:29:00;10.27;;;2.20;;
16524;SDS011;8375;33.594;-117.718;2023-03-22T03:31:36;7.53;;;1.70;;
16524;SDS011;8375;33.594;-117.718;2023-03-22T03:34:12;9.07;;;1.83;;
16524;SDS011;8375;33.594;-117.718;2023-03-22T03:36:48;8.70;;;1.80;;
16524;SDS011;8375;33.594;-117.718;2023-03-22T03:39:20;9.73;;;2.00;;
16524;SDS011;8375;33.594;-117.718;2023-03-22T03:41:53;7.53;;;1.50;;
16524;SDS011;8375;33.594;-117.718;2023-03-22T03:44:23;11.10;;;1.57;;
16524;SDS011;8375;33.594;-117.718;2023-03-22T03:46:52;7.00;;;1.87;;
16524;SDS011;8375;33.594;-117.718;2023-03-22T03:49:21;7.97;;;1.60;;
16524;SDS011;8375;33.594;-117.718;2023-03-22T03:51:52;7.77;;;1.57;;
16524;SDS011;8375;33.594;-117.718;2023-03-22T03:54:22;5.90;;;1.30;;
16524;SDS011;8375;33.594;-117.718;2023-03-22T03:56:50;7.50;;;1.53;;
16524;SDS011;8375;33.594;-117.718;2023-03-22T03:59:21;7.00;;;1.63;;
16524;SDS011;8375;33.594;-117.718;2023-03-22T04:01:50;12.07;;;1.90;;
16524;SDS011;8375;33.594;-117.718;2023-03-22T04:04:19;9.67;;;1.67;;
16524;SDS011;8375;33.594;-117.718;2023-03-22T04:06:52;7.60;;;1.73;;
16524;SDS011;8375;33.594;-117.718;2023-03-22T04:09:23;8.50;;;1.70;;
16524;SDS011;8375;33.594;-117.718;2023-03-22T04:11:53;10.03;;;2.37;;
16524;SDS011;8375;33.594;-117.718;2023-03-22T04:14:23;15.93;;;2.20;;
16524;SDS011;8375;33.594;-117.718;2023-03-22T04:16:52;10.57;;;2.30;;
16524;SDS011;8375;33.594;-117.718;2023-03-22T04:19:21;10.90;;;2.50;;
16524;SDS011;8375;33.594;-117.718;2023-03-22T04:21:50;11.10;;;2.00;;
16524;SDS011;8375;33.594;-117.718;2023-03-22T04:24:19;12.53;;;2.73;;
16524;SDS011;8375;33.594;-117.718;2023-03-22T04:26:48;13.80;;;2.90;;
16524;SDS011;8375;33.594;-117.718;2023-03-22T04:29:18;17.97;;;2.60;;
16524;SDS011;8375;33.594;-117.718;2023-03-22T04:31:49;18.50;;;2.87;;
16524;SDS011;8375;33.594;-117.718;2023-03-22T04:34:17;14.57;;;3.37;;
16524;SDS011;8375;33.594;-117.718;2023-03-22T04:36:46;15.97;;;2.97;;
16524;SDS011;8375;33.594;-117.718;2023-03-22T04:39:15;13.10;;;3.13;;
16524;SDS011;8375;33.594;-117.718;2023-03-22T04:41:44;17.20;;;2.93;;
16524;SDS011;8375;33.594;-117.718;2023-03-22T04:44:12;15.90;;;3.97;;
16524;SDS011;8375;33.594;-117.718;2023-03-22T04:46:42;16.77;;;3.13;;
16524;SDS011;8375;33.594;-117.718;2023-03-22T04:49:11;18.07;;;2.93;;
16524;SDS011;8375;33.594;-117.718;2023-03-22T04:51:40;17.27;;;3.33;;
16524;SDS011;8375;33.594;-117.718;2023-03-22T04:54:09;18.80;;;3.23;;
16524;SDS011;8375;33.594;-117.718;2023-03-22T04:56:37;17.27;;;3.23;;
16524;SDS011;8375;33.594;-117.718;2023-03-22T04:59:06;23.13;;;3.07;;
16524;SDS011;8375;33.594;-117.718;2023-03-22T05:01:35;18.80;;;3.83;;
16524;SDS011;8375;33.594;-117.718;2023-03-22T05:04:07;15.83;;;2.57;;
16524;SDS011;8375;33.594;-117.718;2023-03-22T05:06:35;14.57;;;2.63;;
16524;SDS011;8375;33.594;-117.718;2023-03-22T05:09:04;14.13;;;2.27;;
16524;SDS011;8375;33.594;-117.718;2023-03-22T05:11:33;13.53;;;2.23;;
16524;SDS011;8375;33.594;-117.718;2023-03-22T05:14:01;11.23;;;2.23;;
16524;SDS011;8375;33.594;-117.718;2023-03-22T05:16:30;7.50;;;1.87;;
16524;SDS011;8375;33.594;-117.718;2023-03-22T05:18:59;13.27;;;2.10;;
16524;SDS011;8375;33.594;-117.718;2023-03-22T05:21:29;10.50;;;2.13;;
16524;SDS011;8375;33.594;-117.718;2023-03-22T05:24:01;10.87;;;2.97;;
16524;SDS011;8375;33.594;-117.718;2023-03-22T05:26:30;17.30;;;2.97;;
16524;SDS011;8375;33.594;-117.718;2023-03-22T05:29:02;15.20;;;2.80;;
16524;SDS011;8375;33.594;-117.718;2023-03-22T05:31:31;12.27;;;2.67;;
16524;SDS011;8375;33.594;-117.718;2023-03-22T05:34:00;12.90;;;2.10;;
16524;SDS011;8375;33.594;-117.718;2023-03-22T05:36:31;16.73;;;3.10;;
16524;SDS011;8375;33.594;-117.718;2023-03-22T05:39:01;20.00;;;3.50;;
16524;SDS011;8375;33.594;-117.718;2023-03-22T05:41:30;15.67;;;2.97;;
16524;SDS011;8375;33.594;-117.718;2023-03-22T05:43:58;13.77;;;2.50;;
16524;SDS011;8375;33.594;-117.718;2023-03-22T05:46:27;16.43;;;3.50;;
16524;SDS011;8375;33.594;-117.718;2023-03-22T05:48:56;19.17;;;3.33;;
16524;SDS011;8375;33.594;-117.718;2023-03-22T05:51:25;17.83;;;2.83;;
16524;SDS011;8375;33.594;-117.718;2023-03-22T05:53:56;16.10;;;3.17;;
16524;SDS011;8375;33.594;-117.718;2023-03-22T05:56:25;16.00;;;3.60;;
16524;SDS011;8375;33.594;-117.718;2023-03-22T05:58:53;15.80;;;3.50;;
16524;SDS011;8375;33.594;-117.718;2023-03-22T06:01:22;9.73;;;2.10;;
16524;SDS011;8375;33.594;-117.718;2023-03-22T06:03:51;13.83;;;2.40;;
16524;SDS011;8375;33.594;-117.718;2023-03-22T06:06:20;12.10;;;2.50;;
16524;SDS011;8375;33.594;-117.718;2023-03-22T06:08:49;7.90;;;2.03;;
16524;SDS011;8375;33.594;-117.718;2023-03-22T06:11:19;8.20;;;2.07;;
16524;SDS011;8375;33.594;-117.718;2023-03-22T06:13:49;15.53;;;2.20;;
16524;SDS011;8375;33.594;-117.718;2023-03-22T06:16:18;13.23;;;1.80;;
16524;SDS011;8375;33.594;-117.718;2023-03-22T06:18:46;12.30;;;1.90;;
16524;SDS011;8375;33.594;-117.718;2023-03-22T06:21:15;7.60;;;2.13;;
16524;SDS011;8375;33.594;-117.718;2023-03-22T06:23:44;8.87;;;1.80;;
16524;SDS011;8375;33.594;-117.718;2023-03-22T06:26:13;8.40;;;1.73;;
16524;SDS011;8375;33.594;-117.718;2023-03-22T06:28:43;12.70;;;2.00;;
16524;SDS011;8375;33.594;-117.718;2023-03-22T06:31:12;9.80;;;2.10;;
16524;SDS011;8375;33.594;-117.718;2023-03-22T06:33:40;10.70;;;1.70;;
16524;SDS011;8375;33.594;-117.718;2023-03-22T06:36:10;7.83;;;1.73;;
16524;SDS011;8375;33.594;-117.718;2023-03-22T06:38:38;4.93;;;1.27;;
16524;SDS011;8375;33.594;-117.718;2023-03-22T06:41:08;9.63;;;1.47;;
16524;SDS011;8375;33.594;-117.718;2023-03-22T06:43:36;7.53;;;1.13;;
16524;SDS011;8375;33.594;-117.718;2023-03-22T06:46:07;4.67;;;1.30;;
16524;SDS011;8375;33.594;-117.718;2023-03-22T06:48:36;6.00;;;1.07;;
16524;SDS011;8375;33.594;-117.718;2023-03-22T06:51:05;6.80;;;1.57;;
16524;SDS011;8375;33.594;-117.718;2023-03-22T06:53:34;8.97;;;1.67;;
16524;SDS011;8375;33.594;-117.718;2023-03-22T06:56:03;6.93;;;2.10;;
16524;SDS011;8375;33.594;-117.718;2023-03-22T06:58:32;7.20;;;1.53;;
16524;SDS011;8375;33.594;-117.718;2023-03-22T07:01:01;9.53;;;2.33;;
16524;SDS011;8375;33.594;-117.718;2023-03-22T07:03:32;7.87;;;1.60;;
16524;SDS011;8375;33.594;-117.718;2023-03-22T07:06:01;11.90;;;2.37;;
16524;SDS011;8375;33.594;-117.718;2023-03-22T07:08:31;8.93;;;1.73;;
16524;SDS011;8375;33.594;-117.718;2023-03-22T07:11:00;8.30;;;1.43;;
16524;SDS011;8375;33.594;-117.718;2023-03-22T07:13:29;9.43;;;2.10;;
16524;SDS011;8375;33.594;-117.718;2023-03-22T07:15:59;7.00;;;1.70;;
16524;SDS011;8375;33.594;-117.718;2023-03-22T07:18:29;14.97;;;2.17;;
16524;SDS011;8375;33.594;-117.718;2023-03-22T07:21:00;11.13;;;2.47;;
16524;SDS011;8375;33.594;-117.718;2023-03-22T07:23:29;17.10;;;2.50;;
16524;SDS011;8375;33.594;-117.718;2023-03-22T07:26:00;13.03;;;2.00;;
16524;SDS011;8375;33.594;-117.718;2023-03-22T07:28:29;16.53;;;2.63;;
16524;SDS011;8375;33.594;-117.718;2023-03-22T07:31:01;8.47;;;1.77;;
16524;SDS011;8375;33.594;-117.718;2023-03-22T07:33:33;6.90;;;1.90;;
16524;SDS011;8375;33.594;-117.718;2023-03-22T07:36:02;7.03;;;1.20;;
16524;SDS011;8375;33.594;-117.718;2023-03-22T07:38:31;4.73;;;0.93;;
16524;SDS011;8375;33.594;-117.718;2023-03-22T07:41:00;3.83;;;0.87;;
16524;SDS011;8375;33.594;-117.718;2023-03-22T07:43:29;3.43;;;0.93;;
16524;SDS011;8375;33.594;-117.718;2023-03-22T07:45:57;6.77;;;1.20;;
16524;SDS011;8375;33.594;-117.718;2023-03-22T07:48:26;7.50;;;1.60;;
16524;SDS011;8375;33.594;-117.718;2023-03-22T07:50:57;5.87;;;1.43;;
16524;SDS011;8375;33.594;-117.718;2023-03-22T07:53:26;10.13;;;1.30;;
16524;SDS011;8375;33.594;-117.718;2023-03-22T07:55:55;9.07;;;1.90;;
16524;SDS011;8375;33.594;-117.718;2023-03-22T07:58:23;6.83;;;1.40;;
16524;SDS011;8375;33.594;-117.718;2023-03-22T08:00:52;9.03;;;1.40;;
16524;SDS011;8375;33.594;-117.718;2023-03-22T08:03:21;11.00;;;1.70;;
16524;SDS011;8375;33.594;-117.718;2023-03-22T08:05:50;9.07;;;1.90;;
16524;SDS011;8375;33.594;-117.718;2023-03-22T08:08:20;8.63;;;1.67;;
16524;SDS011;8375;33.594;-117.718;2023-03-22T08:10:49;11.07;;;2.30;;
16524;SDS011;8375;33.594;-117.718;2023-03-22T08:13:17;9.73;;;1.77;;
16524;SDS011;8375;33.594;-117.718;2023-03-22T08:15:46;7.10;;;1.70;;
16524;SDS011;8375;33.594;-117.718;2023-03-22T08:18:15;7.53;;;1.70;;
16524;SDS011;8375;33.594;-117.718;2023-03-22T08:20:44;8.33;;;1.60;;
16524;SDS011;8375;33.594;-117.718;2023-03-22T08:23:12;9.63;;;1.80;;
16524;SDS011;8375;33.594;-117.718;2023-03-22T08:25:43;12.73;;;1.80;;
16524;SDS011;8375;33.594;-117.718;2023-03-22T08:28:11;13.53;;;1.57;;
16524;SDS011;8375;33.594;-117.718;2023-03-22T08:30:40;5.67;;;1.50;;
16524;SDS011;8375;33.594;-117.718;2023-03-22T08:33:09;4.70;;;1.10;;
16524;SDS011;8375;33.594;-117.718;2023-03-22T08:35:38;7.23;;;1.67;;
16524;SDS011;8375;33.594;-117.718;2023-03-22T08:38:07;3.73;;;0.87;;
16524;SDS011;8375;33.594;-117.718;2023-03-22T08:40:36;4.37;;;1.20;;
16524;SDS011;8375;33.594;-117.718;2023-03-22T08:43:06;5.77;;;1.20;;
16524;SDS011;8375;33.594;-117.718;2023-03-22T08:45:35;6.50;;;1.37;;
16524;SDS011;8375;33.594;-117.718;2023-03-22T08:48:04;6.07;;;1.00;;
16524;SDS011;8375;33.594;-117.718;2023-03-22T08:50:33;7.93;;;1.27;;
16524;SDS011;8375;33.594;-117.718;2023-03-22T08:53:02;7.73;;;1.23;;
16524;SDS011;8375;33.594;-117.718;2023-03-22T08:55:31;9.23;;;1.63;;
16524;SDS011;8375;33.594;-117.718;2023-03-22T08:58:00;10.23;;;1.37;;
16524;SDS011;8375;33.594;-117.718;2023-03-22T09:00:31;6.20;;;1.10;;
16524;SDS011;8375;33.594;-117.718;2023-03-22T09:03:00;6.33;;;1.00;;
16524;SDS011;8375;33.594;-117.718;2023-03-22T09:05:28;4.17;;;1.10;;
16524;SDS011;8375;33.594;-117.718;2023-03-22T09:07:57;5.53;;;1.07;;
16524;SDS011;8375;33.594;-117.718;2023-03-22T09:10:26;2.43;;;0.77;;
16524;SDS011;8375;33.594;-117.718;2023-03-22T09:12:55;9.00;;;1.13;;
16524;SDS011;8375;33.594;-117.718;2023-03-22T09:15:24;8.30;;;1.10;;
16524;SDS011;8375;33.594;-117.718;2023-03-22T09:17:55;8.53;;;1.43;;
16524;SDS011;8375;33.594;-117.718;2023-03-22T09:20:23;7.97;;;1.57;;
16524;SDS011;8375;33.594;-117.718;2023-03-22T09:22:52;6.70;;;1.00;;
16524;SDS011;8375;33.594;-117.718;2023-03-22T09:25:21;4.97;;;1.47;;
16524;SDS011;8375;33.594;-117.718;2023-03-22T09:27:50;6.73;;;1.30;;
16524;SDS011;8375;33.594;-117.718;2023-03-22T09:30:18;7.17;;;1.40;;
16524;SDS011;8375;33.594;-117.718;2023-03-22T09:32:47;6.00;;;1.00;;
16524;SDS011;8375;33.594;-117.718;2023-03-22T09:35:17;6.13;;;1.20;;
16524;SDS011;8375;33.594;-117.718;2023-03-22T09:37:46;6.13;;;1.20;;
16524;SDS011;8375;33.594;-117.718;2023-03-22T09:40:17;8.33;;;1.10;;
16524;SDS011;8375;33.594;-117.718;2023-03-22T09:42:47;4.07;;;0.80;;
16524;SDS011;8375;33.594;-117.718;2023-03-22T09:45:19;6.53;;;1.20;;
16524;SDS011;8375;33.594;-117.718;2023-03-22T09:47:56;5.83;;;1.50;;
16524;SDS011;8375;33.594;-117.718;2023-03-22T09:50:28;6.33;;;1.47;;
16524;SDS011;8375;33.594;-117.718;2023-03-22T09:52:59;6.10;;;1.60;;
16524;SDS011;8375;33.594;-117.718;2023-03-22T09:55:29;7.23;;;1.57;;
16524;SDS011;8375;33.594;-117.718;2023-03-22T09:58:05;10.13;;;1.53;;
16524;SDS011;8375;33.594;-117.718;2023-03-22T10:00:40;5.43;;;0.90;;
16524;SDS011;8375;33.594;-117.718;2023-03-22T10:03:15;4.87;;;0.90;;
16524;SDS011;8375;33.594;-117.718;2023-03-22T10:05:58;4.50;;;0.87;;
16524;SDS011;8375;33.594;-117.718;2023-03-22T10:08:43;4.70;;;1.27;;
16524;SDS011;8375;33.594;-117.718;2023-03-22T10:11:19;3.27;;;1.00;;
16524;SDS011;8375;33.594;-117.718;2023-03-22T10:13:57;6.57;;;0.80;;
16524;SDS011;8375;33.594;-117.718;2023-03-22T10:16:31;4.30;;;0.80;;
16524;SDS011;8375;33.594;-117.718;2023-03-22T10:19:03;3.87;;;1.00;;
16524;SDS011;8375;33.594;-117.718;2023-03-22T10:21:40;1.40;;;0.70;;
16524;SDS011;8375;33.594;-117.718;2023-03-22T10:24:11;3.73;;;0.60;;
16524;SDS011;8375;33.594;-117.718;2023-03-22T10:26:45;4.23;;;0.53;;
16524;SDS011;8375;33.594;-117.718;2023-03-22T10:29:17;2.97;;;0.90;;
16524;SDS011;8375;33.594;-117.718;2023-03-22T10:31:49;2.40;;;0.87;;
16524;SDS011;8375;33.594;-117.718;2023-03-22T10:34:19;7.27;;;1.10;;
16524;SDS011;8375;33.594;-117.718;2023-03-22T10:36:50;5.77;;;1.00;;
16524;SDS011;8375;33.594;-117.718;2023-03-22T10:39:24;5.10;;;0.73;;
16524;SDS011;8375;33.594;-117.718;2023-03-22T10:41:57;3.80;;;0.90;;
16524;SDS011;8375;33.594;-117.718;2023-03-22T10:44:30;4.40;;;0.60;;
16524;SDS011;8375;33.594;-117.718;2023-03-22T10:47:03;2.57;;;0.80;;
16524;SDS011;8375;33.594;-117.718;2023-03-22T10:49:36;3.93;;;0.80;;
16524;SDS011;8375;33.594;-117.718;2023-03-22T10:52:15;16.57;;;2.00;;
16524;SDS011;8375;33.594;-117.718;2023-03-22T10:54:54;7.07;;;1.00;;
16524;SDS011;8375;33.594;-117.718;2023-03-22T10:57:23;2.47;;;0.90;;
16524;SDS011;8375;33.594;-117.718;2023-03-22T10:59:53;5.70;;;1.10;;
16524;SDS011;8375;33.594;-117.718;2023-03-22T11:02:23;5.87;;;1.30;;
16524;SDS011;8375;33.594;-117.718;2023-03-22T11:04:54;4.60;;;0.80;;
16524;SDS011;8375;33.594;-117.718;2023-03-22T11:07:28;3.83;;;0.63;;
16524;SDS011;8375;33.594;-117.718;2023-03-22T11:10:16;2.93;;;0.63;;
16524;SDS011;8375;33.594;-117.718;2023-03-22T11:12:52;4.10;;;0.80;;
16524;SDS011;8375;33.594;-117.718;2023-03-22T11:15:25;2.37;;;0.80;;
16524;SDS011;8375;33.594;-117.718;2023-03-22T11:18:00;8.83;;;1.03;;
16524;SDS011;8375;33.594;-117.718;2023-03-22T11:20:32;6.90;;;0.93;;
16524;SDS011;8375;33.594;-117.718;2023-03-22T11:23:03;5.77;;;1.17;;
16524;SDS011;8375;33.594;-117.718;2023-03-22T11:25:33;7.17;;;0.90;;
16524;SDS011;8375;33.594;-117.718;2023-03-22T11:28:08;8.00;;;1.10;;
16524;SDS011;8375;33.594;-117.718;2023-03-22T11:30:56;2.40;;;0.70;;
16524;SDS011;8375;33.594;-117.718;2023-03-22T11:33:27;4.67;;;1.10;;
16524;SDS011;8375;33.594;-117.718;2023-03-22T11:35:56;5.27;;;0.70;;
16524;SDS011;8375;33.594;-117.718;2023-03-22T11:38:29;6.57;;;1.13;;
16524;SDS011;8375;33.594;-117.718;2023-03-22T11:41:07;3.60;;;0.60;;
16524;SDS011;8375;33.594;-117.718;2023-03-22T11:43:38;4.97;;;1.00;;
16524;SDS011;8375;33.594;-117.718;2023-03-22T11:46:13;5.43;;;1.00;;
16524;SDS011;8375;33.594;-117.718;2023-03-22T11:48:44;8.43;;;1.17;;
16524;SDS011;8375;33.594;-117.718;2023-03-22T11:51:14;3.57;;;1.00;;
16524;SDS011;8375;33.594;-117.718;2023-03-22T11:53:46;5.83;;;1.13;;
16524;SDS011;8375;33.594;-117.718;2023-03-22T11:56:16;5.20;;;1.20;;
16524;SDS011;8375;33.594;-117.718;2023-03-22T11:58:55;2.70;;;1.10;;
16524;SDS011;8375;33.594;-117.718;2023-03-22T12:01:33;4.33;;;1.20;;
16524;SDS011;8375;33.594;-117.718;2023-03-22T12:04:08;3.20;;;1.03;;
16524;SDS011;8375;33.594;-117.718;2023-03-22T12:06:42;7.13;;;1.00;;
16524;SDS011;8375;33.594;-117.718;2023-03-22T12:09:16;4.83;;;0.70;;
16524;SDS011;8375;33.594;-117.718;2023-03-22T12:11:52;10.17;;;1.33;;
16524;SDS011;8375;33.594;-117.718;2023-03-22T12:14:24;5.93;;;1.00;;
16524;SDS011;8375;33.594;-117.718;2023-03-22T12:16:56;4.67;;;1.50;;
16524;SDS011;8375;33.594;-117.718;2023-03-22T12:19:35;7.40;;;1.40;;
16524;SDS011;8375;33.594;-117.718;2023-03-22T12:22:11;3.13;;;0.90;;
16524;SDS011;8375;33.594;-117.718;2023-03-22T12:24:44;7.07;;;1.20;;
16524;SDS011;8375;33.594;-117.718;2023-03-22T12:27:14;6.17;;;1.00;;
16524;SDS011;8375;33.594;-117.718;2023-03-22T12:29:49;6.00;;;1.33;;
16524;SDS011;8375;33.594;-117.718;2023-03-22T12:32:22;3.57;;;1.20;;
16524;SDS011;8375;33.594;-117.718;2023-03-22T12:34:54;8.27;;;1.57;;
16524;SDS011;8375;33.594;-117.718;2023-03-22T12:37:25;7.87;;;1.40;;
16524;SDS011;8375;33.594;-117.718;2023-03-22T12:39:59;2.30;;;0.93;;
16524;SDS011;8375;33.594;-117.718;2023-03-22T12:42:34;2.53;;;1.20;;
16524;SDS011;8375;33.594;-117.718;2023-03-22T12:45:10;3.97;;;1.20;;
16524;SDS011;8375;33.594;-117.718;2023-03-22T12:47:42;4.83;;;1.60;;
16524;SDS011;8375;33.594;-117.718;2023-03-22T12:50:15;4.37;;;1.10;;
16524;SDS011;8375;33.594;-117.718;2023-03-22T12:52:46;7.00;;;1.47;;
16524;SDS011;8375;33.594;-117.718;2023-03-22T12:55:22;5.40;;;1.13;;
16524;SDS011;8375;33.594;-117.718;2023-03-22T12:57:52;6.57;;;1.50;;
16524;SDS011;8375;33.594;-117.718;2023-03-22T13:00:25;7.77;;;1.70;;
16524;SDS011;8375;33.594;-117.718;2023-03-22T13:02:57;5.67;;;1.50;;
16524;SDS011;8375;33.594;-117.718;2023-03-22T13:05:28;7.20;;;1.10;;
16524;SDS011;8375;33.594;-117.718;2023-03-22T13:08:00;8.97;;;1.50;;
16524;SDS011;8375;33.594;-117.718;2023-03-22T13:16:17;6.77;;;1.40;;
16524;SDS011;8375;33.594;-117.718;2023-03-22T13:19:00;6.53;;;1.40;;
16524;SDS011;8375;33.594;-117.718;2023-03-22T13:21:43;5.77;;;1.10;;
16524;SDS011;8375;33.594;-117.718;2023-03-22T13:24:19;6.27;;;2.03;;
16524;SDS011;8375;33.594;-117.718;2023-03-22T13:26:50;4.43;;;1.10;;
16524;SDS011;8375;33.594;-117.718;2023-03-22T13:29:22;2.97;;;1.10;;
16524;SDS011;8375;33.594;-117.718;2023-03-22T13:31:53;4.23;;;1.00;;
16524;SDS011;8375;33.594;-117.718;2023-03-22T13:34:30;6.03;;;2.00;;
16524;SDS011;8375;33.594;-117.718;2023-03-22T13:37:07;3.30;;;1.30;;
16524;SDS011;8375;33.594;-117.718;2023-03-22T13:39:37;9.60;;;1.23;;
16524;SDS011;8375;33.594;-117.718;2023-03-22T13:42:07;5.57;;;1.47;;
16524;SDS011;8375;33.594;-117.718;2023-03-22T13:44:46;4.63;;;1.00;;
16524;SDS011;8375;33.594;-117.718;2023-03-22T13:47:33;4.57;;;1.37;;
16524;SDS011;8375;33.594;-117.718;2023-03-22T13:50:08;4.77;;;1.07;;
16524;SDS011;8375;33.594;-117.718;2023-03-22T13:52:40;5.07;;;1.20;;
16524;SDS011;8375;33.594;-117.718;2023-03-22T13:58:09;3.47;;;0.90;;
16524;SDS011;8375;33.594;-117.718;2023-03-22T14:00:59;3.93;;;1.20;;
16524;SDS011;8375;33.594;-117.718;2023-03-22T14:03:30;3.83;;;1.07;;
16524;SDS011;8375;33.594;-117.718;2023-03-22T14:06:06;3.40;;;1.27;;
16524;SDS011;8375;33.594;-117.718;2023-03-22T14:08:40;4.10;;;1.10;;
16524;SDS011;8375;33.594;-117.718;2023-03-22T14:11:18;4.73;;;1.00;;
16524;SDS011;8375;33.594;-117.718;2023-03-22T14:13:50;2.07;;;1.20;;
16524;SDS011;8375;33.594;-117.718;2023-03-22T14:16:30;3.40;;;0.97;;
16524;SDS011;8375;33.594;-117.718;2023-03-22T14:19:03;2.93;;;1.00;;
16524;SDS011;8375;33.594;-117.718;2023-03-22T14:21:35;5.60;;;1.53;;
16524;SDS011;8375;33.594;-117.718;2023-03-22T14:24:06;2.13;;;1.03;;
16524;SDS011;8375;33.594;-117.718;2023-03-22T14:26:39;3.37;;;1.00;;
16524;SDS011;8375;33.594;-117.718;2023-03-22T14:29:12;4.67;;;0.80;;
16524;SDS011;8375;33.594;-117.718;2023-03-22T14:31:44;2.87;;;1.10;;
16524;SDS011;8375;33.594;-117.718;2023-03-22T14:34:14;2.23;;;0.90;;
16524;SDS011;8375;33.594;-117.718;2023-03-22T14:36:46;2.40;;;0.90;;
16524;SDS011;8375;33.594;-117.718;2023-03-22T14:39:19;2.33;;;0.90;;
16524;SDS011;8375;33.594;-117.718;2023-03-22T14:41:55;2.43;;;0.70;;
16524;SDS011;8375;33.594;-117.718;2023-03-22T14:44:25;1.20;;;0.80;;
16524;SDS011;8375;33.594;-117.718;2023-03-22T14:47:08;3.17;;;0.93;;
16524;SDS011;8375;33.594;-117.718;2023-03-22T14:49:39;1.93;;;0.80;;
16524;SDS011;8375;33.594;-117.718;2023-03-22T14:52:11;3.07;;;0.80;;
16524;SDS011;8375;33.594;-117.718;2023-03-22T14:54:43;1.80;;;0.80;;
16524;SDS011;8375;33.594;-117.718;2023-03-22T14:57:15;5.07;;;1.35;;
16524;SDS011;8375;33.594;-117.718;2023-03-22T14:59:46;3.15;;;1.15;;
16524;SDS011;8375;33.594;-117.718;2023-03-22T15:02:22;4.22;;;0.98;;